createdAt,value
2019-04-10T00:03:44.021Z,11.87
2019-04-10T00:07:50.069Z,13.10
2019-04-10T00:11:56.973Z,18.30
2019-04-10T00:16:03.687Z,15.33
2019-04-10T00:20:09.939Z,14.00
2019-04-10T00:24:15.672Z,18.77
2019-04-10T00:28:21.474Z,11.25
2019-04-10T00:32:27.897Z,19.20
2019-04-10T00:36:35.228Z,9.23
2019-04-10T00:40:41.594Z,18.83
2019-04-10T00:44:48.056Z,19.17
2019-04-10T00:48:54.521Z,20.53
2019-04-10T00:53:00.905Z,15.07
2019-04-10T00:57:07.712Z,17.60
2019-04-10T01:01:14.390Z,20.10
2019-04-10T01:05:20.144Z,14.20
2019-04-10T01:09:25.974Z,20.10
2019-04-10T01:13:32.648Z,15.93
2019-04-10T01:17:40.226Z,19.80
2019-04-10T01:21:46.460Z,19.53
2019-04-10T01:25:52.330Z,20.63
2019-04-10T01:29:58.080Z,18.13
2019-04-10T01:34:03.832Z,17.43
2019-04-10T01:38:09.525Z,19.07
2019-04-10T01:42:15.228Z,17.33
2019-04-10T01:46:22.295Z,14.30
2019-04-10T01:50:28.584Z,18.40
2019-04-10T01:54:35.271Z,21.53
2019-04-10T01:58:43.399Z,19.20
2019-04-10T02:02:51.778Z,19.67
2019-04-10T02:06:57.973Z,19.37
2019-04-10T02:11:04.842Z,24.43
2019-04-10T02:15:14.494Z,29.90
2019-04-10T02:19:19.490Z,26.00
2019-04-10T02:23:26.067Z,31.20
2019-04-10T02:27:32.167Z,24.87
2019-04-10T02:31:39.076Z,33.40
2019-04-10T02:35:45.604Z,34.30
2019-04-10T02:39:55.570Z,31.07
2019-04-10T02:44:00.003Z,32.43
2019-04-10T02:48:07.916Z,35.90
2019-04-10T02:52:14.677Z,37.07
2019-04-10T02:56:21.473Z,30.17
2019-04-10T03:00:28.279Z,37.80
2019-04-10T03:04:35.179Z,36.83
2019-04-10T03:08:58.726Z,34.67
2019-04-10T03:12:48.952Z,28.83
2019-04-10T03:16:55.490Z,36.97
2019-04-10T03:21:01.224Z,35.97
2019-04-10T03:25:08.968Z,37.23
2019-04-10T03:29:15.679Z,31.50
2019-04-10T03:33:26.530Z,37.77
2019-04-10T03:37:28.867Z,37.57
2019-04-10T03:41:34.630Z,39.03
2019-04-10T03:45:41.107Z,36.17
2019-04-10T03:49:46.890Z,24.77
2019-04-10T03:53:52.609Z,37.73
2019-04-10T03:57:58.710Z,35.17
2019-04-10T04:02:05.288Z,34.67
2019-04-10T04:06:11.953Z,33.77
2019-04-10T04:10:18.320Z,35.50
2019-04-10T04:14:24.235Z,38.27
2019-04-10T04:18:30.055Z,34.90
2019-04-10T04:22:36.899Z,35.80
2019-04-10T04:26:43.571Z,36.77
2019-04-10T04:30:51.970Z,34.13
2019-04-10T04:34:56.687Z,39.30
2019-04-10T04:39:12.727Z,35.50
2019-04-10T04:43:12.423Z,36.07
2019-04-10T04:47:18.313Z,37.90
2019-04-10T04:51:25.806Z,35.53
2019-04-10T04:55:31.401Z,33.48
2019-04-10T04:59:37.088Z,34.23
2019-04-10T05:03:42.789Z,32.03
2019-04-10T05:07:56.334Z,36.67
2019-04-10T05:11:55.939Z,36.67
2019-04-10T05:16:02.654Z,35.20
2019-04-10T05:20:09.189Z,38.17
2019-04-10T05:24:15.774Z,39.13
2019-04-10T05:28:22.198Z,37.67
2019-04-10T05:32:28.204Z,36.77
2019-04-10T05:36:33.900Z,39.60
2019-04-10T05:40:40.070Z,37.67
2019-04-10T05:44:45.846Z,38.93
2019-04-10T05:48:52.501Z,36.60
2019-04-10T05:52:58.341Z,38.97
2019-04-10T05:57:04.194Z,32.07
2019-04-10T06:01:09.953Z,32.53
2019-04-10T06:05:16.225Z,27.93
2019-04-10T06:09:22.763Z,37.90
2019-04-10T06:13:28.650Z,36.23
2019-04-10T06:17:34.404Z,37.87
2019-04-10T06:21:40.056Z,36.80
2019-04-10T06:25:45.875Z,35.50
2019-04-10T06:29:51.526Z,37.77
2019-04-10T06:33:58.312Z,28.20
2019-04-10T06:38:04.401Z,36.50
2019-04-10T06:42:10.088Z,35.60
2019-04-10T06:46:16.712Z,36.37
2019-04-10T06:50:23.173Z,37.47
2019-04-10T06:54:28.969Z,35.43
2019-04-10T06:58:34.740Z,35.80
2019-04-10T07:02:40.458Z,32.13
2019-04-10T07:06:55.941Z,35.83
2019-04-10T07:11:02.022Z,31.80
2019-04-10T07:15:02.198Z,33.77
2019-04-10T07:19:10.387Z,33.17
2019-04-10T07:23:22.473Z,32.67
2019-04-10T07:27:23.695Z,32.05
2019-04-10T07:31:32.428Z,29.97
2019-04-10T07:35:38.360Z,31.97
2019-04-10T07:39:44.777Z,31.37
2019-04-10T07:43:54.331Z,31.33
2019-04-10T07:47:58.203Z,31.37
2019-04-10T07:52:04.837Z,31.83
2019-04-10T07:56:15.080Z,31.00
2019-04-10T08:00:18.238Z,27.97
2019-04-10T08:04:23.951Z,28.70
2019-04-10T08:08:30.001Z,31.40
2019-04-10T08:12:44.620Z,32.23
2019-04-10T08:16:44.239Z,31.90
2019-04-10T08:20:50.865Z,30.87
2019-04-10T08:24:56.607Z,31.07
2019-04-10T08:29:02.516Z,30.07
2019-04-10T08:33:08.271Z,30.40
2019-04-10T08:37:14.500Z,28.47
2019-04-10T08:41:21.380Z,29.37
2019-04-10T08:45:38.523Z,29.87
2019-04-10T08:49:34.502Z,31.63
2019-04-10T08:53:40.340Z,29.53
2019-04-10T08:57:46.056Z,26.30
2019-04-10T09:01:51.744Z,28.43
2019-04-10T09:05:58.657Z,28.73
2019-04-10T09:10:06.420Z,30.07
2019-04-10T09:14:12.839Z,27.07
2019-04-10T09:18:18.576Z,27.47
2019-04-10T09:22:25.394Z,27.97
2019-04-10T09:26:31.112Z,26.33
2019-04-10T09:30:37.274Z,28.20
2019-04-10T09:34:45.542Z,27.97
2019-04-10T09:38:50.764Z,25.57
2019-04-10T09:42:57.658Z,26.87
2019-04-10T09:47:03.567Z,25.90
2019-04-10T09:51:11.661Z,29.13
2019-04-10T09:55:18.000Z,29.93
2019-04-10T09:59:34.887Z,29.03
2019-04-10T10:03:32.422Z,27.73
2019-04-10T10:07:39.049Z,29.33
2019-04-10T10:11:44.907Z,28.87
2019-04-10T10:15:51.513Z,28.20
2019-04-10T10:19:57.485Z,28.47
2019-04-10T10:24:04.489Z,29.27
2019-04-10T10:28:11.738Z,26.57
2019-04-10T10:32:17.594Z,29.27
2019-04-10T10:36:34.688Z,30.67
2019-04-10T10:40:31.843Z,29.70
2019-04-10T10:44:38.368Z,28.30
2019-04-10T10:48:44.199Z,26.20
2019-04-10T10:52:50.128Z,28.80
2019-04-10T10:56:56.918Z,27.53
2019-04-10T11:01:03.337Z,30.03
2019-04-10T11:05:10.703Z,28.23
2019-04-10T11:09:18.172Z,29.67
2019-04-10T11:13:24.236Z,30.23
2019-04-10T11:17:30.705Z,28.83
2019-04-10T11:21:36.657Z,25.20
2019-04-10T11:25:42.542Z,24.70
2019-04-10T11:29:48.242Z,28.77
2019-04-10T11:33:56.338Z,27.17
2019-04-10T11:38:02.935Z,26.47
2019-04-10T11:46:16.932Z,29.07
2019-04-10T11:50:25.404Z,28.53
2019-04-10T11:54:32.250Z,25.77
2019-04-10T11:58:48.657Z,26.80
2019-04-10T12:02:47.390Z,26.53
2019-04-10T12:06:55.438Z,28.23
2019-04-10T12:15:08.597Z,28.80
2019-04-10T12:19:15.219Z,25.93
2019-04-10T12:23:21.012Z,27.03
2019-04-10T12:27:27.353Z,29.03
2019-04-10T12:31:34.496Z,24.32
2019-04-10T12:35:40.404Z,27.93
2019-04-10T12:39:46.113Z,28.67
2019-04-10T12:43:52.045Z,27.67
2019-04-10T12:47:58.547Z,26.27
2019-04-10T12:52:04.352Z,27.03
2019-04-10T12:56:10.237Z,27.07
2019-04-10T13:00:20.030Z,26.73
2019-04-10T13:04:25.835Z,25.90
2019-04-10T13:08:50.020Z,26.63
2019-04-10T13:12:39.728Z,23.00
2019-04-10T13:16:45.464Z,25.90
2019-04-10T13:20:51.150Z,23.40
2019-04-10T13:24:57.714Z,24.73
2019-04-10T13:29:03.697Z,22.43
2019-04-10T13:33:09.497Z,21.00
2019-04-10T13:37:15.807Z,21.50
2019-04-10T13:41:21.602Z,23.27
2019-04-10T13:45:27.481Z,22.53
2019-04-10T13:49:33.756Z,22.30
2019-04-10T13:53:39.859Z,22.13
2019-04-10T13:57:46.612Z,20.60
2019-04-10T14:01:52.482Z,19.73
2019-04-10T14:05:58.198Z,18.77
2019-04-10T14:10:07.623Z,20.20
2019-04-10T14:14:13.302Z,19.90
2019-04-10T14:18:19.207Z,18.97
2019-04-10T14:22:26.053Z,17.33
2019-04-10T14:26:45.844Z,17.20
2019-04-10T14:30:43.524Z,17.07
2019-04-10T14:34:50.425Z,16.90
2019-04-10T14:39:08.626Z,16.57
2019-04-10T14:43:03.793Z,17.37
2019-04-10T14:47:10.642Z,16.60
2019-04-10T14:51:17.582Z,57.67
2019-04-10T14:55:29.168Z,16.60
2019-04-10T14:59:35.914Z,16.20
2019-04-10T15:03:42.645Z,15.17
2019-04-10T15:07:48.399Z,15.75
2019-04-10T15:11:55.193Z,16.20
2019-04-10T15:16:01.069Z,15.30
2019-04-10T15:20:08.967Z,15.55
2019-04-10T15:24:15.320Z,15.13
2019-04-10T15:28:21.163Z,15.10
2019-04-10T15:32:26.878Z,15.37
2019-04-10T15:36:32.580Z,17.67
2019-04-10T15:40:38.579Z,13.90
2019-04-10T15:44:44.399Z,16.37
2019-04-10T15:48:50.763Z,14.87
2019-04-10T15:52:57.973Z,15.00
2019-04-10T15:57:04.694Z,16.13
2019-04-10T16:01:12.228Z,16.67
2019-04-10T16:05:18.100Z,15.03
2019-04-10T16:09:25.327Z,15.97
2019-04-10T16:13:38.898Z,17.37
2019-04-10T16:17:48.217Z,16.00
2019-04-10T16:21:56.412Z,15.70
2019-04-10T16:26:02.918Z,15.73
2019-04-10T16:30:12.209Z,14.63
2019-04-10T16:34:18.019Z,14.50
2019-04-10T16:38:24.727Z,15.60
2019-04-10T16:42:30.766Z,14.30
2019-04-10T16:46:36.690Z,15.97
2019-04-10T16:50:43.394Z,17.47
2019-04-10T16:54:49.371Z,17.70
2019-04-10T16:58:56.259Z,18.67
2019-04-10T17:03:02.029Z,17.07
2019-04-10T17:07:08.600Z,19.30
2019-04-10T17:11:14.653Z,21.43
2019-04-10T17:15:20.456Z,24.27
2019-04-10T17:19:26.279Z,20.90
2019-04-10T17:23:32.284Z,19.70
2019-04-10T17:27:38.051Z,25.83
2019-04-10T17:36:10.192Z,21.90
2019-04-10T17:40:27.443Z,20.07
2019-04-10T17:44:24.018Z,20.07
2019-04-10T17:48:30.692Z,21.00
2019-04-10T17:52:38.640Z,21.57
2019-04-10T17:56:44.473Z,19.93
2019-04-10T18:00:52.147Z,20.77
2019-04-10T18:04:58.160Z,21.87
2019-04-10T18:09:05.878Z,23.50
2019-04-10T18:13:11.769Z,21.80
2019-04-10T18:17:18.483Z,19.67
2019-04-10T18:21:24.593Z,20.87
2019-04-10T18:25:30.320Z,22.07
2019-04-10T18:29:36.090Z,20.20
2019-04-10T18:33:42.759Z,20.80
2019-04-10T18:37:49.095Z,19.43
2019-04-10T18:41:55.870Z,20.53
2019-04-10T18:46:10.743Z,21.40
2019-04-10T18:50:12.047Z,20.07
2019-04-10T18:54:18.609Z,19.67
2019-04-10T18:58:26.169Z,19.80
2019-04-10T19:02:32.744Z,20.70
2019-04-10T19:06:58.889Z,18.33
2019-04-10T19:11:16.971Z,20.07
2019-04-10T19:15:12.814Z,19.90
2019-04-10T19:19:18.606Z,19.20
2019-04-10T19:23:25.460Z,19.07
2019-04-10T19:27:32.335Z,19.60
2019-04-10T19:31:40.267Z,20.00
2019-04-10T19:35:46.098Z,19.07
2019-04-10T19:39:51.891Z,19.07
2019-04-10T19:43:58.870Z,18.37
2019-04-10T19:48:06.691Z,19.43
2019-04-10T19:52:51.588Z,19.07
2019-04-10T19:56:57.417Z,18.50
2019-04-10T20:01:05.172Z,18.43
2019-04-10T20:05:11.179Z,18.77
2019-04-10T20:09:18.027Z,18.90
2019-04-10T20:13:24.864Z,18.97
2019-04-10T20:17:54.625Z,17.53
2019-04-10T20:22:00.689Z,21.53
2019-04-10T20:26:07.134Z,19.60
2019-04-10T20:30:15.232Z,17.50
2019-04-10T20:34:21.280Z,17.23
2019-04-10T20:38:51.211Z,23.10
2019-04-10T20:42:56.977Z,18.00
2019-04-10T20:47:02.701Z,16.33
2019-04-10T20:51:08.516Z,17.90
2019-04-10T20:55:14.357Z,25.70
2019-04-10T20:59:20.065Z,16.17
2019-04-10T21:03:25.766Z,15.33
2019-04-10T21:07:31.888Z,15.23
2019-04-10T21:12:02.046Z,14.80
2019-04-10T21:16:00.725Z,15.23
2019-04-10T21:20:09.707Z,13.75
2019-04-10T21:24:16.563Z,19.23
2019-04-10T21:28:22.616Z,13.13
2019-04-10T21:32:35.884Z,13.37
2019-04-10T21:36:51.190Z,13.10
2019-04-10T21:40:57.349Z,12.33
2019-04-10T21:45:03.249Z,14.43
2019-04-10T21:49:09.054Z,17.73
2019-04-10T21:53:14.793Z,12.27
2019-04-10T21:57:20.612Z,11.10
2019-04-10T22:01:26.879Z,13.43
2019-04-10T22:05:51.016Z,11.67
2019-04-10T22:10:13.372Z,10.93
2019-04-10T22:14:21.481Z,11.10
2019-04-10T22:18:51.995Z,10.97
2019-04-10T22:22:57.724Z,10.63
2019-04-10T22:27:03.506Z,10.13
2019-04-10T22:31:09.628Z,11.03
2019-04-10T22:35:15.455Z,9.97
2019-04-10T22:39:21.159Z,10.33
2019-04-10T22:43:28.085Z,18.37
2019-04-10T22:47:35.889Z,10.47
2019-04-10T22:51:41.862Z,10.80
2019-04-10T22:55:48.533Z,9.67
2019-04-10T22:59:55.304Z,9.77
2019-04-10T23:04:01.747Z,8.87
2019-04-10T23:08:09.445Z,9.87
2019-04-10T23:12:16.195Z,9.27
2019-04-10T23:16:22.225Z,8.77
2019-04-10T23:20:27.960Z,8.90
2019-04-10T23:24:33.842Z,9.00
2019-04-10T23:28:39.851Z,9.50
2019-04-10T23:32:45.965Z,9.13
2019-04-10T23:36:51.667Z,8.90
2019-04-10T23:40:57.397Z,8.70
2019-04-10T23:45:03.363Z,8.13
2019-04-10T23:49:09.061Z,8.77
2019-04-10T23:53:14.752Z,8.90
2019-04-10T23:57:21.179Z,9.27
